Time;durP1;ratioP1;P1;durP2;ratioP2;P2;SDS_P1;SDS_P2;PMS_P1;PMS_P2;Temp;Humidity;BMP_temperature;BMP_pressure;BME280_temperature;BME280_humidity;BME280_pressure;Samples;Min_cycle;Max_cycle;Signal;HPM_P1;HPM_P2
2023/10/29 00:02:24;;;;;;;3.90;2.60;;;;;;;14.09;54.37;99299.75;108193;1254;72373;-65
2023/10/29 00:04:51;;;;;;;4.50;3.00;;;;;;;14.09;54.48;99295.52;107970;1253;61026;-66
2023/10/29 00:07:18;;;;;;;3.90;3.10;;;;;;;13.99;54.44;99297.39;108163;1254;60225;-66
2023/10/29 00:09:45;;;;;;;6.20;2.50;;;;;;;14.11;54.25;99304.38;108198;1254;72846;-67
2023/10/29 00:12:11;;;;;;;6.30;3.10;;;;;;;14.06;54.43;99298.48;108202;1254;70113;-66
2023/10/29 00:14:38;;;;;;;4.50;2.80;;;;;;;14.10;54.32;99308.89;108189;1254;72886;-66
2023/10/29 00:17:05;;;;;;;7.20;3.40;;;;;;;14.07;54.71;99313.45;108161;1254;61472;-63
2023/10/29 00:19:32;;;;;;;42.80;11.90;;;;;;;14.08;54.82;99312.32;108191;1254;60371;-62
2023/10/29 00:21:58;;;;;;;54.50;14.40;;;;;;;14.22;54.81;99313.02;108178;1253;72780;-67
2023/10/29 00:24:25;;;;;;;70.70;19.00;;;;;;;14.11;55.08;99311.98;108145;1253;57924;-66
2023/10/29 00:26:51;;;;;;;54.50;15.00;;;;;;;14.07;55.17;99316.83;108159;1254;59654;-66
2023/10/29 00:29:18;;;;;;;33.80;8.40;;;;;;;14.20;54.80;99320.17;108007;1254;59679;-66
2023/10/29 00:31:44;;;;;;;12.30;5.50;;;;;;;14.22;54.88;99322.56;108118;1253;59600;-66
2023/10/29 00:34:12;;;;;;;9.60;3.90;;;;;;;14.07;55.30;99324.91;108255;1253;72851;-66
2023/10/29 00:36:39;;;;;;;5.90;4.00;;;;;;;14.10;55.58;99324.06;108256;1253;70225;-65
2023/10/29 00:39:07;;;;;;;8.30;3.50;;;;;;;13.96;55.93;99329.88;108052;1254;73274;-66
2023/10/29 00:41:34;;;;;;;7.10;4.20;;;;;;;13.97;56.08;99335.29;108070;1254;60847;-66
2023/10/29 00:44:00;;;;;;;5.30;3.40;;;;;;;14.00;56.02;99340.71;107960;1253;60208;-66
2023/10/29 00:46:27;;;;;;;5.20;3.70;;;;;;;13.99;56.11;99344.50;108192;1254;72948;-66
2023/10/29 00:48:53;;;;;;;5.50;3.60;;;;;;;13.96;56.34;99346.10;108025;1254;59624;-66
2023/10/29 00:51:20;;;;;;;7.80;3.80;;;;;;;14.04;56.30;99346.66;108062;1253;73207;-65
2023/10/29 00:53:47;;;;;;;6.50;3.20;;;;;;;14.14;56.18;99352.00;108128;1253;61081;-66
2023/10/29 00:56:17;;;;;;;8.10;3.50;;;;;;;14.24;55.75;99354.86;107851;1254;60520;-67
2023/10/29 00:58:44;;;;;;;5.70;3.70;;;;;;;14.32;55.46;99351.91;108131;1254;73819;-64
2023/10/29 01:01:10;;;;;;;6.70;3.00;;;;;;;14.36;55.51;99352.52;108161;1253;69613;-66
2023/10/29 01:03:37;;;;;;;7.20;4.30;;;;;;;14.43;55.34;99353.87;108199;1253;71559;-66
2023/10/29 01:06:04;;;;;;;5.60;3.90;;;;;;;14.43;55.40;99351.52;108239;1253;60898;-65
2023/10/29 01:08:32;;;;;;;4.40;3.50;;;;;;;14.46;55.08;99352.06;108226;1254;60297;-67
2023/10/29 01:10:59;;;;;;;5.00;3.60;;;;;;;14.48;54.98;99348.54;108165;1254;73738;-66
2023/10/29 01:13:26;;;;;;;8.30;3.40;;;;;;;14.57;54.65;99354.75;108126;1252;69198;-67
2023/10/29 01:15:52;;;;;;;5.40;3.60;;;;;;;14.63;54.41;99352.95;108128;1253;72395;-66
2023/10/29 01:18:19;;;;;;;6.60;3.20;;;;;;;14.60;54.38;99357.02;108124;1256;61176;-64
2023/10/29 01:20:46;;;;;;;9.30;4.00;;;;;;;14.75;54.33;99356.55;108023;1254;60858;-64
2023/10/29 01:23:14;;;;;;;5.80;3.50;;;;;;;14.77;54.17;99358.38;108213;1254;74698;-64
2023/10/29 01:25:41;;;;;;;4.10;3.10;;;;;;;14.79;53.99;99357.13;108223;1254;70561;-61
2023/10/29 01:28:08;;;;;;;6.60;3.40;;;;;;;14.79;54.17;99361.23;108171;1256;72575;-65
2023/10/29 01:30:34;;;;;;;6.10;3.50;;;;;;;14.72;54.18;99369.11;108094;1252;61131;-67
2023/10/29 01:33:01;;;;;;;5.90;3.50;;;;;;;14.68;54.27;99377.66;108184;1253;60325;-66
2023/10/29 01:35:28;;;;;;;7.30;3.70;;;;;;;14.74;54.08;99379.95;108055;1254;73726;-66
2023/10/29 01:37:55;;;;;;;4.60;3.20;;;;;;;14.73;53.81;99385.86;108105;1253;70211;-65
2023/10/29 01:40:22;;;;;;;5.30;3.50;;;;;;;14.86;53.78;99395.38;108149;1254;72741;-64
2023/10/29 01:42:49;;;;;;;7.60;3.30;;;;;;;14.88;53.62;99394.70;108152;1252;61556;-66
2023/10/29 01:45:17;;;;;;;5.00;3.00;;;;;;;14.91;53.58;99400.55;108169;1252;60382;-65
2023/10/29 01:47:43;;;;;;;8.00;3.20;;;;;;;14.84;53.49;99397.66;108015;1254;60414;-64
2023/10/29 01:50:10;;;;;;;5.00;3.10;;;;;;;14.88;53.23;99401.47;108008;1254;70323;-65
2023/10/29 01:52:38;;;;;;;5.70;3.80;;;;;;;14.94;53.30;99404.05;108125;1256;72456;-66
2023/10/29 01:55:06;;;;;;;6.50;3.20;;;;;;;15.04;53.15;99400.77;108139;1256;61138;-66
2023/10/29 01:57:34;;;;;;;6.20;3.30;;;;;;;15.14;52.84;99399.88;108063;1253;60418;-65
2023/10/29 02:00:04;;;;;;;5.10;3.10;;;;;;;15.20;52.73;99405.33;108040;1253;73652;-66
2023/10/29 02:02:37;;;;;;;6.60;3.20;;;;;;;15.16;52.64;99409.83;108208;1254;69649;-67
2023/10/29 02:05:05;;;;;;;4.60;3.10;;;;;;;15.10;52.86;99409.70;108034;1254;72392;-64
2023/10/29 02:07:32;;;;;;;4.80;3.90;;;;;;;15.12;52.74;99413.13;108202;1253;60299;-65
2023/10/29 02:09:59;;;;;;;5.00;2.80;;;;;;;15.18;52.52;99413.59;108210;1253;59689;-66
2023/10/29 02:12:25;;;;;;;4.90;3.50;;;;;;;15.27;52.47;99417.77;108215;1253;73675;-66
2023/10/29 02:14:53;;;;;;;4.80;3.00;;;;;;;15.31;52.22;99422.80;108190;1254;69267;-66
2023/10/29 02:17:23;;;;;;;4.00;3.00;;;;;;;15.30;52.21;99423.04;108064;1257;71468;-65
2023/10/29 02:19:55;;;;;;;4.60;3.50;;;;;;;15.22;52.29;99421.23;108165;1252;60403;-66
2023/10/29 02:22:23;;;;;;;4.60;3.30;;;;;;;15.16;52.30;99427.70;108211;1254;60266;-65
2023/10/29 02:24:50;;;;;;;4.30;3.10;;;;;;;15.25;52.25;99433.46;108173;1253;73807;-65
2023/10/29 02:27:17;;;;;;;5.10;3.40;;;;;;;15.32;51.97;99440.06;108153;1256;70867;-65
2023/10/29 02:29:44;;;;;;;6.10;3.40;;;;;;;15.35;51.80;99444.83;108056;1259;73106;-66
2023/10/29 02:32:11;;;;;;;5.50;3.30;;;;;;;15.37;51.89;99448.61;108069;1256;60986;-68
2023/10/29 02:34:37;;;;;;;7.90;3.10;;;;;;;15.45;51.46;99445.75;108158;1253;60313;-65
2023/10/29 02:37:04;;;;;;;3.90;2.90;;;;;;;15.44;51.35;99445.45;107996;1254;73769;-65
2023/10/29 02:39:30;;;;;;;6.20;3.20;;;;;;;15.47;51.19;99452.29;107995;1254;60181;-65
2023/10/29 02:41:57;;;;;;;3.50;2.60;;;;;;;15.49;50.82;99462.60;108039;1256;71896;-66
2023/10/29 02:44:24;;;;;;;6.20;3.10;;;;;;;15.51;50.72;99460.70;108044;1254;60959;-65
2023/10/29 02:46:50;;;;;;;4.30;3.00;;;;;;;15.54;50.75;99462.96;108118;1253;60377;-65
2023/10/29 02:49:17;;;;;;;3.30;2.90;;;;;;;15.55;50.69;99465.20;108125;1254;60339;-65
2023/10/29 02:51:44;;;;;;;6.40;2.80;;;;;;;15.55;50.46;99466.30;108136;1253;70026;-66
2023/10/29 02:54:12;;;;;;;6.70;2.90;;;;;;;15.53;50.47;99470.27;108216;1254;72641;-66
2023/10/29 02:56:39;;;;;;;4.90;2.90;;;;;;;15.55;50.22;99465.58;108046;1253;61124;-66
2023/10/29 02:59:05;;;;;;;4.00;3.20;;;;;;;15.52;50.16;99472.83;108116;1254;60299;-66
2023/10/29 03:01:32;;;;;;;5.70;3.20;;;;;;;15.57;50.02;99480.12;108131;1254;60331;-66
2023/10/29 03:03:58;;;;;;;4.30;3.10;;;;;;;15.62;49.96;99488.80;108037;1254;70755;-65
2023/10/29 03:06:25;;;;;;;5.80;3.30;;;;;;;15.58;50.06;99493.52;108188;1253;71190;-66
2023/10/29 03:08:52;;;;;;;5.90;2.70;;;;;;;15.46;50.42;99496.98;108107;1253;61174;-66
2023/10/29 03:11:19;;;;;;;3.20;2.50;;;;;;;15.44;50.42;99500.81;107996;1254;60476;-66
2023/10/29 03:13:45;;;;;;;4.60;2.80;;;;;;;15.42;50.38;99508.74;107973;1254;60289;-66
2023/10/29 03:16:12;;;;;;;4.50;2.40;;;;;;;15.39;50.58;99512.13;108155;1254;70106;-66
2023/10/29 03:18:39;;;;;;;4.20;2.90;;;;;;;15.38;50.55;99519.09;108165;1254;72929;-65
2023/10/29 03:21:05;;;;;;;4.00;3.00;;;;;;;15.33;50.64;99525.04;108150;1253;60983;-65
2023/10/29 03:23:32;;;;;;;5.00;2.90;;;;;;;15.23;50.71;99529.42;108245;1253;59996;-66
2023/10/29 03:26:02;;;;;;;4.50;2.60;;;;;;;15.23;50.43;99526.78;108173;1253;73739;-67
2023/10/29 03:28:29;;;;;;;4.30;2.90;;;;;;;15.27;50.62;99530.19;108148;1254;70291;-65
2023/10/29 03:30:56;;;;;;;3.70;2.60;;;;;;;15.30;50.62;99535.84;108027;1259;73420;-65
2023/10/29 03:33:23;;;;;;;6.00;2.90;;;;;;;15.29;50.46;99533.08;108065;1254;60327;-66
2023/10/29 03:35:50;;;;;;;4.10;2.60;;;;;;;15.35;50.34;99533.80;107997;1259;60402;-66
2023/10/29 03:38:16;;;;;;;4.00;2.60;;;;;;;15.35;50.21;99537.83;108050;1258;72856;-65
2023/10/29 03:40:43;;;;;;;4.90;2.70;;;;;;;15.42;50.06;99538.27;108135;1252;60312;-64
2023/10/29 03:43:10;;;;;;;3.40;2.70;;;;;;;15.44;50.01;99542.17;107953;1254;73320;-65
2023/10/29 03:45:36;;;;;;;6.20;3.20;;;;;;;15.32;50.09;99548.98;108023;1254;61005;-65
2023/10/29 03:48:03;;;;;;;4.20;2.90;;;;;;;15.23;50.27;99548.85;108051;1254;60374;-66
2023/10/29 03:50:30;;;;;;;4.60;2.90;;;;;;;15.28;50.12;99543.59;108161;1256;73641;-66
2023/10/29 03:52:57;;;;;;;6.70;3.10;;;;;;;15.35;50.19;99542.81;108275;1253;68754;-66
2023/10/29 03:55:23;;;;;;;4.70;3.60;;;;;;;15.34;50.14;99545.00;108200;1252;72492;-66
2023/10/29 03:57:50;;;;;;;4.70;3.50;;;;;;;15.26;50.16;99542.28;108158;1254;60972;-66
2023/10/29 04:00:16;;;;;;;4.60;3.60;;;;;;;15.32;50.34;99544.38;108159;1252;60315;-67
2023/10/29 04:02:43;;;;;;;6.10;3.30;;;;;;;15.32;50.06;99542.28;108147;1254;73843;-65
2023/10/29 04:05:10;;;;;;;3.70;2.90;;;;;;;15.27;50.47;99538.52;108177;1254;70161;-65
2023/10/29 04:07:37;;;;;;;4.60;3.30;;;;;;;15.33;50.52;99538.13;108176;1253;71395;-64
2023/10/29 04:10:04;;;;;;;5.30;3.60;;;;;;;15.54;50.02;99539.20;108149;1253;61363;-66
2023/10/29 04:12:32;;;;;;;5.00;3.20;;;;;;;15.79;49.79;99540.58;108192;1253;60348;-65
2023/10/29 04:14:58;;;;;;;4.30;3.00;;;;;;;15.91;49.51;99536.25;108195;1254;73818;-66
2023/10/29 04:17:25;;;;;;;5.10;3.40;;;;;;;15.64;50.03;99533.98;108166;1254;70175;-66
2023/10/29 04:19:52;;;;;;;5.30;3.40;;;;;;;15.63;50.07;99532.79;108011;1254;71693;-64
2023/10/29 04:22:19;;;;;;;4.00;3.10;;;;;;;15.58;49.90;99529.55;108173;1254;60975;-65
2023/10/29 04:24:45;;;;;;;4.80;3.30;;;;;;;15.62;50.09;99524.86;108213;1253;60421;-66
2023/10/29 04:27:13;;;;;;;4.80;3.10;;;;;;;15.65;49.95;99528.41;108205;1254;72650;-66
2023/10/29 04:29:39;;;;;;;4.90;2.60;;;;;;;15.70;50.01;99528.58;108188;1253;70076;-67
2023/10/29 04:32:06;;;;;;;3.50;2.80;;;;;;;15.85;49.92;99532.04;108182;1254;73107;-66
2023/10/29 04:34:33;;;;;;;5.00;3.20;;;;;;;15.85;49.61;99531.15;108163;1254;60906;-66
2023/10/29 04:37:00;;;;;;;3.70;2.80;;;;;;;15.82;49.67;99528.52;108172;1253;60328;-66
2023/10/29 04:39:26;;;;;;;4.80;3.30;;;;;;;15.68;49.73;99532.78;108187;1254;72714;-65
2023/10/29 04:41:53;;;;;;;4.90;3.30;;;;;;;15.61;49.86;99534.90;108202;1254;69365;-66
2023/10/29 04:44:20;;;;;;;4.40;2.80;;;;;;;15.64;49.99;99536.41;108167;1254;72660;-66
2023/10/29 04:46:46;;;;;;;4.10;3.20;;;;;;;15.75;49.62;99543.33;108152;1254;60359;-67
2023/10/29 04:49:13;;;;;;;3.70;2.90;;;;;;;15.65;49.97;99544.30;108088;1254;59274;-63
2023/10/29 04:51:39;;;;;;;4.70;3.40;;;;;;;15.63;50.05;99547.61;108150;1254;60412;-63
2023/10/29 04:54:07;;;;;;;4.10;3.20;;;;;;;15.57;49.97;99551.05;108156;1254;60450;-66
2023/10/29 04:56:34;;;;;;;5.30;2.80;;;;;;;15.57;49.99;99548.77;108167;1254;72356;-66
2023/10/29 04:59:00;;;;;;;4.40;3.10;;;;;;;15.70;49.74;99553.59;108169;1254;60335;-66
2023/10/29 05:01:27;;;;;;;5.20;3.50;;;;;;;15.73;49.51;99557.27;108200;1254;60720;-66
2023/10/29 05:03:53;;;;;;;5.10;3.30;;;;;;;15.83;49.72;99558.06;108178;1256;72836;-67
2023/10/29 05:06:21;;;;;;;4.30;3.10;;;;;;;15.81;49.73;99559.58;108233;1254;70114;-65
2023/10/29 05:08:47;;;;;;;8.50;3.20;;;;;;;15.73;49.93;99566.49;108240;1253;71349;-66
2023/10/29 05:11:14;;;;;;;6.60;3.80;;;;;;;15.57;49.99;99566.30;108171;1252;61124;-66
2023/10/29 05:13:41;;;;;;;3.60;2.90;;;;;;;15.58;50.02;99569.22;108169;1254;61462;-66
2023/10/29 05:16:08;;;;;;;5.40;3.40;;;;;;;15.59;49.91;99578.70;108167;1254;73632;-67
2023/10/29 05:18:34;;;;;;;4.40;3.10;;;;;;;15.50;50.17;99581.43;108196;1256;70278;-65
2023/10/29 05:21:01;;;;;;;5.10;3.00;;;;;;;15.51;50.34;99585.45;108201;1254;72655;-67
2023/10/29 05:23:29;;;;;;;5.30;3.60;;;;;;;15.53;50.33;99595.01;108050;1254;60480;-66
2023/10/29 05:25:56;;;;;;;5.50;2.90;;;;;;;15.60;50.19;99601.29;108159;1252;60211;-64
2023/10/29 05:28:22;;;;;;;4.90;3.30;;;;;;;15.54;50.47;99605.73;108185;1252;60456;-65
2023/10/29 05:30:49;;;;;;;4.80;3.00;;;;;;;15.50;50.47;99613.41;108240;1253;70120;-67
2023/10/29 05:33:15;;;;;;;4.90;3.10;;;;;;;15.41;50.66;99625.00;108193;1252;71735;-65
2023/10/29 05:35:43;;;;;;;4.20;2.80;;;;;;;15.40;50.81;99637.42;108135;1254;60886;-67
2023/10/29 05:38:10;;;;;;;4.50;3.20;;;;;;;15.31;50.84;99638.88;108208;1253;60319;-66
2023/10/29 05:40:37;;;;;;;6.40;3.20;;;;;;;15.38;50.84;99645.20;108202;1252;73897;-66
2023/10/29 05:43:03;;;;;;;4.50;3.10;;;;;;;15.58;50.51;99651.16;108223;1254;70076;-66
2023/10/29 05:45:30;;;;;;;5.50;3.60;;;;;;;15.73;50.12;99659.52;108179;1253;72562;-66
2023/10/29 05:47:58;;;;;;;10.70;3.30;;;;;;;15.78;50.10;99662.95;108043;1254;60863;-67
2023/10/29 05:50:25;;;;;;;6.60;4.00;;;;;;;15.73;50.02;99664.16;108161;1253;60505;-67
2023/10/29 05:52:52;;;;;;;5.30;3.70;;;;;;;15.46;50.56;99671.73;108178;1254;72398;-66
2023/10/29 05:55:19;;;;;;;7.40;4.20;;;;;;;15.40;50.85;99674.61;108257;1254;70211;-66
2023/10/29 05:57:46;;;;;;;5.90;3.80;;;;;;;15.38;50.86;99677.04;108151;1254;72514;-67
2023/10/29 06:00:15;;;;;;;6.10;3.80;;;;;;;15.52;50.88;99679.64;108166;1254;61674;-67
2023/10/29 06:02:41;;;;;;;8.60;3.70;;;;;;;15.53;50.71;99690.91;108172;1254;60492;-67
2023/10/29 06:05:08;;;;;;;6.20;3.30;;;;;;;15.69;50.63;99693.06;108068;1254;73763;-65
2023/10/29 06:07:37;;;;;;;4.90;3.60;;;;;;;15.77;50.47;99697.20;108192;1254;70114;-68
2023/10/29 06:10:04;;;;;;;6.30;3.30;;;;;;;15.53;50.86;99703.45;108169;1253;72763;-67
2023/10/29 06:12:31;;;;;;;10.60;3.90;;;;;;;15.66;50.93;99716.04;108156;1253;62030;-67
2023/10/29 06:14:57;;;;;;;6.60;4.10;;;;;;;15.63;50.75;99725.46;108152;1254;60292;-67
2023/10/29 06:17:24;;;;;;;4.60;3.20;;;;;;;15.75;50.30;99725.61;108148;1254;73714;-67
2023/10/29 06:19:53;;;;;;;5.00;3.70;;;;;;;15.65;50.35;99728.73;108151;1256;70401;-66
2023/10/29 06:22:20;;;;;;;6.60;3.30;;;;;;;15.55;50.33;99730.23;108094;1256;72727;-66
2023/10/29 06:24:46;;;;;;;8.40;4.60;;;;;;;15.57;50.33;99735.05;108094;1254;60546;-66
2023/10/29 06:27:13;;;;;;;4.50;3.50;;;;;;;15.53;50.40;99737.42;108125;1254;60299;-66
2023/10/29 06:29:40;;;;;;;4.30;3.60;;;;;;;15.82;49.86;99742.51;108046;1254;73987;-65
2023/10/29 06:32:07;;;;;;;6.40;4.10;;;;;;;16.01;49.64;99741.98;108132;1254;70270;-66
2023/10/29 06:34:34;;;;;;;7.60;4.40;;;;;;;15.99;49.53;99737.35;108138;1253;72784;-66
2023/10/29 06:37:00;;;;;;;5.90;3.90;;;;;;;16.04;49.56;99743.23;108122;1253;60193;-66
2023/10/29 06:39:27;;;;;;;6.20;3.80;;;;;;;16.00;49.68;99751.06;108122;1254;60289;-66
2023/10/29 06:41:53;;;;;;;8.50;3.80;;;;;;;16.16;49.48;99752.67;108170;1253;73643;-67
2023/10/29 06:44:20;;;;;;;5.70;4.20;;;;;;;16.22;49.66;99756.19;108191;1254;70053;-66
2023/10/29 06:46:47;;;;;;;5.80;3.80;;;;;;;16.28;49.48;99756.12;108110;1254;72635;-66
2023/10/29 06:49:13;;;;;;;7.40;4.80;;;;;;;16.24;49.57;99762.46;108145;1256;61721;-66
2023/10/29 06:51:40;;;;;;;8.10;4.50;;;;;;;16.21;49.54;99767.09;108152;1254;60321;-67
2023/10/29 06:54:07;;;;;;;5.80;3.30;;;;;;;16.06;49.72;99767.53;108218;1253;73528;-67
2023/10/29 06:56:33;;;;;;;5.60;4.50;;;;;;;16.10;49.68;99770.23;108097;1256;69767;-67
2023/10/29 06:59:00;;;;;;;7.10;4.60;;;;;;;16.16;49.63;99776.63;108168;1254;72488;-67
2023/10/29 07:01:26;;;;;;;6.20;3.50;;;;;;;16.21;49.30;99775.77;108167;1254;61953;-66
2023/10/29 07:03:53;;;;;;;4.20;3.50;;;;;;;16.24;49.42;99774.68;108202;1253;60408;-67
2023/10/29 07:06:20;;;;;;;6.90;3.60;;;;;;;16.23;49.41;99775.30;108049;1254;72697;-66
2023/10/29 07:08:47;;;;;;;6.20;4.00;;;;;;;16.23;49.53;99786.77;108178;1254;60323;-66
2023/10/29 07:11:14;;;;;;;6.30;4.10;;;;;;;16.30;49.42;99788.80;108264;1254;72399;-66
2023/10/29 07:13:41;;;;;;;5.10;3.60;;;;;;;16.44;49.02;99783.96;108160;1254;62004;-65
2023/10/29 07:16:08;;;;;;;6.40;4.30;;;;;;;16.44;49.28;99785.94;108192;1254;60447;-67
2023/10/29 07:18:36;;;;;;;5.40;3.80;;;;;;;16.45;49.00;99784.95;108112;1257;72587;-66
2023/10/29 07:21:03;;;;;;;4.60;3.50;;;;;;;16.44;49.05;99786.95;108149;1256;70067;-66
2023/10/29 07:23:30;;;;;;;6.20;3.90;;;;;;;16.46;49.03;99789.11;108212;1256;71566;-66
2023/10/29 07:25:56;;;;;;;5.00;3.40;;;;;;;16.50;48.60;99788.48;108176;1254;60594;-66
2023/10/29 07:28:23;;;;;;;6.50;4.50;;;;;;;16.48;48.66;99789.91;108193;1254;60402;-66
2023/10/29 07:30:50;;;;;;;8.60;4.10;;;;;;;16.42;48.72;99786.74;108126;1254;73627;-67
2023/10/29 07:33:16;;;;;;;5.90;3.60;;;;;;;16.48;49.04;99792.20;108148;1254;60420;-66
2023/10/29 07:35:43;;;;;;;5.70;4.10;;;;;;;16.62;48.79;99796.04;108278;1254;72338;-65
2023/10/29 07:38:10;;;;;;;5.70;3.50;;;;;;;16.74;48.31;99804.13;108151;1254;61973;-67
2023/10/29 07:40:36;;;;;;;6.50;3.80;;;;;;;16.99;47.88;99807.77;108171;1253;60370;-66
2023/10/29 07:43:03;;;;;;;6.30;3.80;;;;;;;17.08;47.61;99814.23;108017;1254;60326;-67
2023/10/29 07:45:33;;;;;;;8.40;4.00;;;;;;;17.01;47.55;99820.77;108162;1254;69986;-65
2023/10/29 07:47:59;;;;;;;10.00;4.60;;;;;;;16.85;47.85;99813.66;108171;1254;72689;-67
2023/10/29 07:50:26;;;;;;;5.90;3.70;;;;;;;16.74;47.70;99813.52;108192;1254;61824;-67
2023/10/29 07:52:53;;;;;;;4.60;3.70;;;;;;;16.73;48.01;99818.70;108174;1253;60976;-67
2023/10/29 07:55:20;;;;;;;7.90;4.20;;;;;;;16.70;48.03;99824.94;108171;1254;73864;-67
2023/10/29 07:57:46;;;;;;;5.00;3.00;;;;;;;16.67;47.84;99824.95;108169;1257;60158;-66
2023/10/29 08:00:13;;;;;;;10.20;4.10;;;;;;;16.69;47.91;99821.06;108136;1254;73172;-67
2023/10/29 08:02:41;;;;;;;6.80;3.80;;;;;;;16.74;47.84;99822.55;108122;1253;62007;-67
2023/10/29 08:05:09;;;;;;;5.60;3.70;;;;;;;16.75;47.88;99821.04;108134;1253;60197;-67
2023/10/29 08:07:36;;;;;;;11.30;5.90;;;;;;;16.79;48.05;99819.73;108149;1254;73817;-67
2023/10/29 08:10:04;;;;;;;7.00;4.50;;;;;;;16.79;48.20;99815.15;108105;1257;68714;-67
2023/10/29 08:12:31;;;;;;;6.70;4.40;;;;;;;16.90;48.08;99809.44;108164;1254;72558;-67
2023/10/29 08:14:57;;;;;;;6.10;4.30;;;;;;;16.93;48.21;99815.05;108165;1254;61672;-67
2023/10/29 08:17:25;;;;;;;6.50;4.20;;;;;;;17.07;48.03;99815.05;108187;1257;60274;-67
2023/10/29 08:19:52;;;;;;;6.00;4.00;;;;;;;17.24;47.69;99815.96;108157;1256;73664;-65
2023/10/29 08:22:19;;;;;;;5.20;3.80;;;;;;;17.35;47.29;99822.27;108181;1254;68820;-67
2023/10/29 08:24:45;;;;;;;11.90;4.70;;;;;;;17.40;47.40;99823.52;108096;1254;72568;-67
2023/10/29 08:27:12;;;;;;;8.60;4.60;;;;;;;17.42;47.29;99825.67;108054;1253;61995;-66
2023/10/29 08:29:41;;;;;;;8.10;4.60;;;;;;;17.41;47.24;99823.79;108166;1254;61101;-66
2023/10/29 08:32:08;;;;;;;8.00;4.50;;;;;;;17.53;47.18;99824.39;108163;1254;73666;-67
2023/10/29 08:34:35;;;;;;;12.00;4.30;;;;;;;17.70;46.78;99822.48;108109;1256;70388;-67
2023/10/29 08:37:02;;;;;;;8.80;4.90;;;;;;;17.82;46.21;99822.70;108124;1254;72813;-65
2023/10/29 08:39:29;;;;;;;6.20;4.00;;;;;;;18.08;45.64;99822.43;108111;1254;62032;-66
2023/10/29 08:41:57;;;;;;;7.10;4.00;;;;;;;18.55;44.95;99830.48;108179;1254;60316;-66
2023/10/29 08:44:23;;;;;;;6.90;3.60;;;;;;;18.88;44.47;99831.95;108198;1254;73852;-66
2023/10/29 08:46:50;;;;;;;6.90;3.80;;;;;;;19.16;43.61;99829.63;108123;1257;70004;-66
2023/10/29 08:49:16;;;;;;;5.90;4.00;;;;;;;19.11;42.37;99827.85;108155;1254;72561;-67
2023/10/29 08:51:43;;;;;;;6.30;4.10;;;;;;;19.26;42.73;99834.56;108112;1256;60332;-67
2023/10/29 08:54:09;;;;;;;4.30;3.60;;;;;;;19.53;42.67;99838.34;108132;1254;60399;-67
2023/10/29 08:56:36;;;;;;;5.70;4.10;;;;;;;19.78;42.63;99841.55;108027;1254;72787;-67
2023/10/29 08:59:06;;;;;;;5.60;4.20;;;;;;;20.08;42.17;99842.13;107946;1254;188461;-67
2023/10/29 09:02:46;;;;;;;7.50;4.20;;;;;;;19.07;44.17;99854.02;104886;1293;599922;-67
2023/10/29 09:05:15;;;;;;;6.50;4.40;;;;;;;20.06;41.59;99856.95;107268;1267;60080;-66
2023/10/29 09:07:42;;;;;;;9.80;4.30;;;;;;;20.12;40.97;99856.79;107336;1265;60172;-66
2023/10/29 09:10:10;;;;;;;4.40;3.30;;;;;;;20.11;40.72;99860.98;107251;1266;72412;-66
2023/10/29 09:12:37;;;;;;;5.70;4.10;;;;;;;20.36;41.04;99864.25;107274;1266;70108;-67
2023/10/29 09:15:06;;;;;;;8.30;4.50;;;;;;;20.57;40.65;99866.99;107307;1267;72692;-66
2023/10/29 09:17:34;;;;;;;6.00;4.00;;;;;;;20.70;40.33;99869.88;107345;1263;177379;-67
2023/10/29 09:20:03;;;;;;;7.50;4.50;;;;;;;20.84;40.26;99865.37;107381;1263;60112;-66
2023/10/29 09:22:30;;;;;;;6.90;5.00;;;;;;;20.67;40.33;99868.52;107327;1263;71320;-66
2023/10/29 09:24:58;;;;;;;11.30;5.30;;;;;;;20.52;40.41;99870.08;107411;1268;70141;-65
2023/10/29 09:27:26;;;;;;;7.70;4.90;;;;;;;20.48;40.43;99867.93;107351;1263;72450;-66
2023/10/29 09:29:53;;;;;;;7.80;5.20;;;;;;;20.51;40.68;99864.49;107271;1265;60181;-66
2023/10/29 09:32:20;;;;;;;10.20;5.00;;;;;;;20.59;40.49;99865.46;107370;1263;59683;-66
2023/10/29 09:34:48;;;;;;;7.00;5.30;;;;;;;20.52;40.48;99865.66;107377;1263;71771;-67
2023/10/29 09:37:16;;;;;;;10.20;5.60;;;;;;;20.31;41.05;99867.35;107397;1263;68848;-66
2023/10/29 09:39:46;;;;;;;13.70;6.00;;;;;;;20.31;41.06;99867.48;107554;1260;72718;-66
2023/10/29 09:42:14;;;;;;;9.10;5.90;;;;;;;20.26;41.35;99866.15;107542;1263;60065;-67
2023/10/29 09:44:42;;;;;;;8.80;5.50;;;;;;;20.25;41.38;99864.79;107386;1260;59927;-67
2023/10/29 09:47:14;;;;;;;7.30;5.40;;;;;;;20.06;41.75;99873.11;107511;1260;73469;-67
2023/10/29 09:49:41;;;;;;;8.50;5.20;;;;;;;20.04;41.80;99879.86;107529;1260;70416;-67
2023/10/29 09:52:09;;;;;;;9.00;6.10;;;;;;;20.01;42.12;99885.48;107529;1263;72785;-68
2023/10/29 09:54:40;;;;;;;12.40;6.30;;;;;;;19.92;42.48;99887.80;107518;1260;59627;-68
2023/10/29 09:57:07;;;;;;;11.30;7.00;;;;;;;19.77;42.87;99889.30;107524;1260;60551;-67
2023/10/29 09:59:35;;;;;;;9.10;5.70;;;;;;;19.66;43.37;99891.63;107545;1260;72344;-67
2023/10/29 10:02:03;;;;;;;9.80;5.40;;;;;;;19.75;43.24;99889.89;107564;1266;69009;-66
2023/10/29 10:04:30;;;;;;;10.80;6.50;;;;;;;19.79;43.14;99894.90;107506;1260;71456;-67
2023/10/29 10:06:59;;;;;;;11.60;6.20;;;;;;;19.79;43.30;99900.21;107571;1260;61731;-66
2023/10/29 10:09:26;;;;;;;9.60;5.80;;;;;;;19.84;43.21;99900.02;107560;1260;60030;-66
2023/10/29 10:12:04;;;;;;;11.70;6.90;;;;;;;19.76;43.37;99901.88;107541;1265;73010;-66
2023/10/29 10:14:32;;;;;;;12.00;6.80;;;;;;;19.71;43.42;99897.45;108129;1254;69516;-65
2023/10/29 10:17:09;;;;;;;12.00;7.40;;;;;;;19.92;43.15;99895.63;108095;1254;72692;-67
2023/10/29 10:19:37;;;;;;;12.50;7.60;;;;;;;19.96;43.08;99886.10;108157;1254;60877;-67
2023/10/29 10:22:05;;;;;;;10.40;7.10;;;;;;;19.96;43.22;99883.52;108094;1253;60052;-67
2023/10/29 10:24:40;;;;;;;11.80;7.20;;;;;;;20.11;43.15;99883.42;108228;1254;74890;-67
2023/10/29 10:27:09;;;;;;;10.50;6.50;;;;;;;20.42;42.62;99891.92;108032;1253;70417;-66
2023/10/29 10:29:37;;;;;;;10.10;6.10;;;;;;;20.82;41.87;99885.67;108138;1256;71388;-67
2023/10/29 10:32:05;;;;;;;12.40;8.20;;;;;;;21.00;41.43;99882.01;108135;1253;60540;-67
2023/10/29 10:34:39;;;;;;;10.70;7.10;;;;;;;21.00;41.40;99879.89;108183;1253;59247;-65
2023/10/29 10:37:07;;;;;;;11.70;7.20;;;;;;;21.00;41.27;99884.88;108178;1252;73019;-66
2023/10/29 10:39:34;;;;;;;11.30;6.80;;;;;;;21.09;41.40;99882.86;108162;1254;68833;-67
2023/10/29 10:42:04;;;;;;;9.30;6.60;;;;;;;21.11;41.33;99880.70;108188;1254;72656;-67
2023/10/29 10:44:32;;;;;;;9.60;6.70;;;;;;;21.10;41.35;99883.85;108156;1254;60098;-65
2023/10/29 10:46:59;;;;;;;10.70;6.70;;;;;;;21.29;41.44;99882.73;107952;1253;59523;-66
2023/10/29 10:49:31;;;;;;;10.10;6.60;;;;;;;21.70;41.17;99874.55;108180;1254;73561;-66
2023/10/29 10:52:01;;;;;;;10.20;6.90;;;;;;;22.37;39.96;99873.48;108157;1252;69603;-66
2023/10/29 10:54:31;;;;;;;8.50;6.20;;;;;;;22.73;39.22;99873.82;108145;1254;73826;-67
2023/10/29 10:56:59;;;;;;;11.30;7.50;;;;;;;22.94;38.50;99877.46;108115;1252;59525;-67
2023/10/29 10:59:27;;;;;;;11.90;6.80;;;;;;;23.17;38.24;99874.08;108149;1254;59558;-67
2023/10/29 11:01:54;;;;;;;8.40;6.30;;;;;;;23.42;38.13;99879.05;108121;1253;72485;-67
2023/10/29 11:04:23;;;;;;;9.80;6.50;;;;;;;23.70;37.57;99874.57;107986;1259;70292;-66
2023/10/29 11:06:51;;;;;;;11.10;6.20;;;;;;;23.79;37.10;99879.83;108106;1253;72981;-67
2023/10/29 11:09:19;;;;;;;11.40;6.20;;;;;;;23.61;37.24;99889.48;108132;1258;60447;-67
2023/10/29 11:11:54;;;;;;;11.10;6.20;;;;;;;23.41;37.47;99900.13;108157;1252;60063;-66
2023/10/29 11:14:23;;;;;;;10.00;6.10;;;;;;;23.27;37.78;99900.39;108130;1257;73705;-67
2023/10/29 11:16:55;;;;;;;8.70;6.30;;;;;;;23.10;38.04;99903.70;108238;1254;68418;-67
2023/10/29 11:19:41;;;;;;;12.90;7.10;;;;;;;22.80;38.38;99903.71;108182;1254;72052;-67
2023/10/29 11:22:18;;;;;;;10.10;5.60;;;;;;;22.53;38.77;99911.77;108106;1254;60050;-66
2023/10/29 11:25:05;;;;;;;11.00;7.00;;;;;;;22.38;39.17;99914.74;108111;1253;60075;-67
2023/10/29 11:27:46;;;;;;;9.80;6.30;;;;;;;22.29;39.49;99915.90;108128;1252;72897;-68